TimeMDT,TemperatureF,Dew PointF,Humidity,Sea Level PressureIn,VisibilityMPH,Wind Direction,Wind SpeedMPH,Gust SpeedMPH,PrecipitationIn,Events,Conditions,WindDirDegrees,DateUTC
12:15 AM,62.6,38.8,42,30.08,10.0,North,5.8,-,N/A,Rain,Light Rain,360,2012-10-12 06:15:00
12:35 AM,61.5,43.7,52,30.07,10.0,North,6.9,-,N/A,,Unknown,350,2012-10-12 06:35:00
12:55 AM,61.9,39.7,44,30.07,10.0,SW,4.6,-,N/A,,Unknown,230,2012-10-12 06:55:00
2:15 AM,61.9,37.8,41,30.08,10.0,NNE,4.6,-,N/A,,Unknown,20,2012-10-12 08:15:00
2:35 AM,58.5,35.6,42,30.07,10.0,SW,5.8,-,N/A,,Unknown,220,2012-10-12 08:35:00
2:55 AM,59.4,39.6,48,30.10,10.0,Calm,Calm,-,N/A,Rain,Light Rain,0,2012-10-12 08:55:00
3:15 AM,59.5,39.0,47,30.08,10.0,North,4.6,-,N/A,Rain,Light Rain,10,2012-10-12 09:15:00
3:35 AM,59.2,42.4,54,30.07,10.0,North,9.2,-,N/A,,Unknown,10,2012-10-12 09:35:00
3:55 AM,58.5,45.9,63,30.06,10.0,NNE,8.1,-,N/A,,Unknown,30,2012-10-12 09:55:00
4:15 AM,58.3,44.1,59,30.05,10.0,NE,8.1,-,N/A,,Unknown,50,2012-10-12 10:15:00
4:35 AM,57.2,45.3,65,30.05,10.0,ENE,3.5,-,N/A,,Unknown,60,2012-10-12 10:35:00
4:55 AM,56.7,44.8,64,30.05,10.0,Calm,Calm,-,N/A,,Unknown,0,2012-10-12 10:55:00
5:15 AM,56.7,44.6,64,30.05,10.0,East,5.8,-,N/A,,Unknown,80,2012-10-12 11:15:00
5:35 AM,57.0,44.2,62,30.05,10.0,East,5.8,-,N/A,,Unknown,80,2012-10-12 11:35:00
5:55 AM,55.6,43.7,64,30.04,10.0,ENE,8.1,-,N/A,Thunderstorm,Unknown,60,2012-10-12 11:55:00
6:15 AM,55.8,42.8,62,30.03,10.0,ENE,4.6,-,N/A,,Unknown,60,2012-10-12 12:15:00
6:35 AM,54.3,41.7,62,30.04,10.0,ESE,3.5,-,N/A,,Unknown,110,2012-10-12 12:35:00
6:55 AM,53.2,42.1,66,30.03,10.0,Calm,Calm,-,N/A,Thunderstorm,Unknown,0,2012-10-12 12:55:00
7:15 AM,52.0,40.6,65,30.04,10.0,East,6.9,-,N/A,,Unknown,100,2012-10-12 13:15:00
7:35 AM,53.6,41.0,62,30.05,10.0,ENE,8.1,-,N/A,,Unknown,70,2012-10-12 13:35:00
7:55 AM,54.1,42.8,66,30.05,10.0,NNE,9.2,-,N/A,Rain,Light Rain,30,2012-10-12 13:55:00
8:15 AM,55.4,43.7,65,30.09,10.0,WSW,13.8,21.9,N/A,,Unknown,240,2012-10-12 14:15:00
8:55 AM,53.8,48.4,82,30.12,4.0,NW,8.1,-,0.02,Rain,Rain,320,2012-10-12 14:55:00
9:15 AM,56.1,51.1,83,30.08,10.0,NNE,8.1,-,0.02,Rain,Light Rain,30,2012-10-12 15:15:00
9:35 AM,56.3,50.7,82,30.07,10.0,ENE,12.7,-,0.02,Rain-Thunderstorm,Light Thunderstorms and Rain,60,2012-10-12 15:35:00
10:15 AM,55.4,50.4,83,30.09,7.0,North,3.5,-,N/A,Rain-Thunderstorm,Light Thunderstorms and Rain,360,2012-10-12 16:15:00
10:35 AM,54.0,50.5,88,30.13,10.0,SW,26.5,33.4,0.01,Rain,Light Rain,220,2012-10-12 16:35:00
10:55 AM,54.1,47.5,78,30.12,2.0,West,5.8,9.2,0.12,Rain,Rain,260,2012-10-12 16:55:00
11:15 AM,54.7,49.8,84,30.08,10.0,North,9.2,-,0.02,Rain-Thunderstorm,Light Thunderstorms and Rain,10,2012-10-12 17:15:00
11:35 AM,56.7,49.6,77,30.07,10.0,NNE,8.1,-,0.02,Thunderstorm,Thunderstorm,30,2012-10-12 17:35:00
11:55 AM,57.2,49.5,75,30.07,10.0,ENE,4.6,-,0.02,,Unknown,60,2012-10-12 17:55:00
12:35 PM,53.8,50.4,88,30.10,2.0,NNE,3.5,-,0.09,Rain-Thunderstorm,Heavy Thunderstorms and Rain,30,2012-10-12 18:35:00
1:35 PM,56.7,50.9,81,30.04,10.0,NE,9.2,-,0.01,,Unknown,40,2012-10-12 19:35:00
2:15 PM,60.4,50.0,68,30.02,10.0,East,9.2,-,N/A,,Unknown,80,2012-10-12 20:15:00
2:55 PM,59.0,50.5,73,30.02,10.0,SE,8.1,-,N/A,,Unknown,130,2012-10-12 20:55:00
3:15 PM,58.1,50.0,74,30.00,10.0,East,6.9,-,N/A,Thunderstorm,Unknown,80,2012-10-12 21:15:00
3:35 PM,57.7,50.5,77,29.98,10.0,East,11.5,-,N/A,Thunderstorm,Unknown,80,2012-10-12 21:35:00
3:55 PM,56.5,49.8,78,29.99,10.0,East,11.5,-,N/A,Thunderstorm,Unknown,80,2012-10-12 21:55:00
4:15 PM,55.4,49.5,80,29.98,10.0,East,12.7,20.7,N/A,Thunderstorm,Thunderstorm,80,2012-10-12 22:15:00
4:35 PM,53.4,50.2,89,30.01,2.0,South,3.5,-,0.06,Rain-Thunderstorm,Heavy Thunderstorms and Rain,180,2012-10-12 22:35:00
5:15 PM,54.5,50.4,86,30.00,10.0,North,4.6,-,N/A,Thunderstorm,Unknown,350,2012-10-12 23:15:00
5:55 PM,55.4,50.0,82,30.02,10.0,NNE,5.8,-,N/A,,Unknown,30,2012-10-12 23:55:00
6:15 PM,54.5,50.2,85,30.02,10.0,ENE,8.1,-,N/A,,Unknown,60,2012-10-13 00:15:00
6:35 PM,53.8,49.6,86,30.02,10.0,Calm,Calm,-,N/A,,Unknown,0,2012-10-13 00:35:00
7:15 PM,52.7,49.1,88,30.03,10.0,Calm,Calm,-,N/A,,Unknown,0,2012-10-13 01:15:00
7:35 PM,52.2,48.6,88,30.05,10.0,ENE,4.6,-,N/A,,Unknown,70,2012-10-13 01:35:00
7:55 PM,52.0,48.4,88,30.06,10.0,ENE,5.8,-,N/A,,Unknown,70,2012-10-13 01:55:00
8:15 PM,51.3,47.1,86,30.06,10.0,NNE,5.8,-,N/A,,Unknown,30,2012-10-13 02:15:00
8:35 PM,50.7,46.4,85,30.07,10.0,NE,3.5,-,N/A,Thunderstorm,Unknown,40,2012-10-13 02:35:00
8:55 PM,51.3,44.1,76,30.07,10.0,Calm,Calm,-,N/A,,Unknown,0,2012-10-13 02:55:00
9:15 PM,50.9,43.7,76,30.07,10.0,Calm,Calm,-,N/A,,Unknown,0,2012-10-13 03:15:00
11:15 PM,49.5,45.0,84,30.10,10.0,SW,3.5,-,N/A,,Unknown,230,2012-10-13 05:15:00
11:35 PM,49.1,44.8,85,30.10,10.0,Calm,Calm,-,N/A,,Unknown,0,2012-10-13 05:35:00